Time;durP1;ratioP1;P1;durP2;ratioP2;P2;SDS_P1;SDS_P2;PMS_P1;PMS_P2;Temp;Humidity;BMP_temperature;BMP_pressure;BME280_temperature;BME280_humidity;BME280_pressure;Samples;Min_cycle;Max_cycle;Signal;HPM_P1;HPM_P2
2023/03/30 00:01:13;;;;;;;7.47;3.03;;;;;;;12.40;100.00;100483.50;5096677;28;20093;-64
2023/03/30 00:03:43;;;;;;;7.80;2.90;;;;;;;12.39;100.00;100486.50;5107078;27;20054;-63
2023/03/30 00:06:13;;;;;;;7.35;3.10;;;;;;;12.38;100.00;100499.34;5116431;28;20043;-65
2023/03/30 00:08:41;;;;;;;8.18;3.50;;;;;;;12.36;100.00;100496.94;5116179;28;20419;-64
2023/03/30 00:11:15;;;;;;;8.25;3.30;;;;;;;12.35;100.00;100498.00;5117092;28;20044;-63
2023/03/30 00:13:44;;;;;;;7.80;3.50;;;;;;;12.34;100.00;100481.94;5078917;28;20044;-64
2023/03/30 00:16:13;;;;;;;8.45;3.85;;;;;;;12.32;100.00;100481.41;5096314;28;20550;-64
2023/03/30 00:18:43;;;;;;;9.00;3.63;;;;;;;12.32;100.00;100476.75;5096494;28;20496;-63
2023/03/30 00:21:11;;;;;;;6.82;3.20;;;;;;;12.31;100.00;100469.66;5094864;28;20551;-64
2023/03/30 00:23:39;;;;;;;11.43;3.70;;;;;;;12.30;100.00;100468.03;5079959;27;20048;-65
2023/03/30 00:26:07;;;;;;;7.82;3.13;;;;;;;12.30;100.00;100456.28;5078546;28;20051;-65
2023/03/30 00:28:35;;;;;;;5.15;2.92;;;;;;;12.30;100.00;100465.28;5095082;28;20135;-63
2023/03/30 00:31:03;;;;;;;10.15;3.50;;;;;;;12.31;100.00;100469.66;5096304;28;20040;-64
2023/03/30 00:33:31;;;;;;;8.82;3.40;;;;;;;12.31;100.00;100464.19;5111945;28;20450;-64
2023/03/30 00:36:11;;;;;;;9.52;3.40;;;;;;;12.31;100.00;100469.66;5113658;27;20404;-63
2023/03/30 00:38:39;;;;;;;7.55;3.53;;;;;;;12.31;100.00;100464.19;5115926;28;20094;-65
2023/03/30 00:41:08;;;;;;;8.73;3.42;;;;;;;12.33;100.00;100455.69;5095373;28;20111;-63
2023/03/30 00:44:01;;;;;;;8.52;3.40;;;;;;;12.34;100.00;100457.34;5095167;28;20058;-65
2023/03/30 00:46:30;;;;;;;9.07;3.00;;;;;;;12.35;100.00;100453.50;5105163;27;20044;-65
2023/03/30 00:49:04;;;;;;;5.95;3.00;;;;;;;12.35;100.00;100442.56;5078094;28;20074;-65
2023/03/30 00:51:34;;;;;;;10.55;3.60;;;;;;;12.36;100.00;100430.53;5078397;28;20044;-62
2023/03/30 00:54:09;;;;;;;5.75;2.83;;;;;;;12.36;100.00;100423.16;5096014;28;20048;-63
2023/03/30 00:56:36;;;;;;;7.35;2.85;;;;;;;12.35;100.00;100418.78;5097311;27;20046;-64
2023/03/30 00:59:04;;;;;;;11.88;3.38;;;;;;;12.37;100.00;100413.03;5094692;28;20051;-63
2023/03/30 01:01:37;;;;;;;9.55;3.15;;;;;;;12.36;100.00;100411.41;5096063;28;20040;-64
2023/03/30 01:04:07;;;;;;;8.93;3.60;;;;;;;12.38;100.00;100411.94;5094778;28;20048;-64
2023/03/30 01:06:38;;;;;;;5.80;3.03;;;;;;;12.35;100.00;100416.06;5094805;28;20086;-65
2023/03/30 01:09:07;;;;;;;6.88;2.67;;;;;;;12.36;100.00;100406.78;5106189;27;20048;-63
2023/03/30 01:11:35;;;;;;;8.07;2.90;;;;;;;12.35;100.00;100399.66;5114889;28;20044;-64
2023/03/30 01:14:07;;;;;;;4.70;3.10;;;;;;;12.35;100.00;100402.41;5114698;28;20411;-64
2023/03/30 01:16:43;;;;;;;7.47;2.72;;;;;;;12.35;100.00;100407.84;5115421;28;20322;-63
2023/03/30 01:19:43;;;;;;;7.47;2.75;;;;;;;12.36;100.00;100406.78;5101933;27;20051;-64
2023/03/30 01:22:33;;;;;;;9.07;3.42;;;;;;;12.35;100.00;100402.41;5093898;28;20063;-63
2023/03/30 01:25:21;;;;;;;8.07;3.10;;;;;;;12.35;99.73;100405.13;5094184;28;20044;-64
2023/03/30 01:28:06;;;;;;;7.00;2.80;;;;;;;12.38;99.87;100403.72;5095450;28;20094;-64
2023/03/30 01:31:00;;;;;;;9.55;2.70;;;;;;;12.36;99.18;100401.31;5094495;28;20052;-64
2023/03/30 01:33:53;;;;;;;7.75;3.05;;;;;;;12.40;99.54;100400.72;5095484;28;20140;-65
2023/03/30 01:36:40;;;;;;;8.13;3.22;;;;;;;12.40;98.84;100407.00;5094359;28;20058;-64
2023/03/30 01:39:20;;;;;;;8.10;3.13;;;;;;;12.40;98.83;100406.19;5099799;27;20051;-64
2023/03/30 01:42:15;;;;;;;7.78;3.08;;;;;;;12.40;98.82;100384.31;5093899;28;20044;-64
2023/03/30 01:44:56;;;;;;;6.65;2.63;;;;;;;12.41;99.27;100397.72;5082391;28;20075;-63
2023/03/30 01:47:37;;;;;;;6.20;2.85;;;;;;;12.43;99.59;100386.47;5114037;28;20407;-63
2023/03/30 01:50:10;;;;;;;5.82;2.70;;;;;;;12.42;99.25;100390.31;5093441;28;20043;-64
2023/03/30 01:52:45;;;;;;;11.98;3.00;;;;;;;12.42;99.08;100373.94;5093484;28;20040;-63
2023/03/30 01:55:19;;;;;;;7.25;2.97;;;;;;;12.41;99.69;100372.28;5093567;28;20086;-64
2023/03/30 01:58:26;;;;;;;8.77;2.88;;;;;;;12.43;99.14;100365.41;5078128;28;20044;-64
2023/03/30 02:00:54;;;;;;;7.22;2.70;;;;;;;12.42;99.29;100363.00;5109946;28;20078;-64
2023/03/30 02:03:26;;;;;;;9.73;3.17;;;;;;;12.43;98.80;100367.34;5076404;28;20476;-64
2023/03/30 02:06:09;;;;;;;11.90;3.15;;;;;;;12.43;99.28;100378.28;5094712;28;20044;-66
2023/03/30 02:08:37;;;;;;;7.32;3.05;;;;;;;12.42;98.64;100382.13;5094923;28;20040;-64
2023/03/30 02:11:06;;;;;;;5.90;2.88;;;;;;;12.40;98.34;100382.41;5092464;28;20043;-64
2023/03/30 02:13:37;;;;;;;7.70;2.53;;;;;;;12.42;99.08;100387.59;5093922;28;20473;-65
2023/03/30 02:16:14;;;;;;;8.40;3.08;;;;;;;12.43;98.08;100378.28;5093150;28;20048;-64
2023/03/30 02:18:45;;;;;;;6.55;2.60;;;;;;;12.45;98.39;100376.06;5093513;28;20040;-63
2023/03/30 02:21:13;;;;;;;15.18;2.63;;;;;;;12.47;97.61;100387.53;5094466;28;20134;-65
2023/03/30 02:23:44;;;;;;;6.05;2.53;;;;;;;12.51;97.71;100380.38;5112143;28;20407;-64
2023/03/30 02:26:12;;;;;;;8.45;2.40;;;;;;;12.53;97.85;100387.19;5113798;28;20043;-65
2023/03/30 02:28:40;;;;;;;4.63;2.33;;;;;;;12.57;97.38;100388.19;5096549;28;20050;-64
2023/03/30 02:31:13;;;;;;;4.85;2.20;;;;;;;12.62;97.22;100381.88;5092629;28;20052;-65
2023/03/30 02:33:45;;;;;;;6.60;2.17;;;;;;;12.67;97.10;100384.53;5076435;28;20044;-65
2023/03/30 02:36:19;;;;;;;6.50;2.40;;;;;;;12.71;96.89;100374.66;5060009;28;20074;-64
2023/03/30 02:39:03;;;;;;;5.63;2.40;;;;;;;12.74;96.60;100373.25;5092551;28;20048;-65
2023/03/30 02:41:59;;;;;;;5.93;2.22;;;;;;;12.73;96.57;100377.91;5085571;28;20384;-65
2023/03/30 02:44:41;;;;;;;9.20;2.60;;;;;;;12.74;96.44;100382.25;5093490;28;20396;-64
2023/03/30 02:47:33;;;;;;;4.53;2.65;;;;;;;12.74;96.31;100381.44;5076481;28;20048;-63
2023/03/30 02:50:13;;;;;;;8.05;2.47;;;;;;;12.75;95.96;100372.97;5093011;28;20051;-63
2023/03/30 02:53:09;;;;;;;5.70;2.47;;;;;;;12.75;96.50;100378.44;5090719;28;20115;-64
2023/03/30 02:55:52;;;;;;;6.07;2.72;;;;;;;12.74;96.19;100378.72;5092941;28;20062;-64
2023/03/30 02:58:46;;;;;;;6.10;2.50;;;;;;;12.73;96.19;100388.84;5109864;28;20050;-64
2023/03/30 03:01:39;;;;;;;10.30;2.95;;;;;;;12.74;96.33;100390.44;5078590;28;20044;-64
2023/03/30 03:04:17;;;;;;;8.35;2.72;;;;;;;12.74;96.25;100389.66;5093304;28;20066;-65
2023/03/30 03:07:09;;;;;;;8.90;2.92;;;;;;;12.73;96.13;100377.09;5080757;28;20048;-63
2023/03/30 03:09:37;;;;;;;7.20;2.70;;;;;;;12.71;96.05;100380.09;5109764;28;20105;-64
2023/03/30 03:12:05;;;;;;;6.35;2.65;;;;;;;12.71;96.41;100377.38;5088962;28;20047;-62
2023/03/30 03:14:37;;;;;;;6.43;2.55;;;;;;;12.72;96.27;100375.44;5098176;28;20054;-64
2023/03/30 03:17:05;;;;;;;5.70;2.78;;;;;;;12.71;95.69;100379.31;5095522;28;20040;-63
2023/03/30 03:19:38;;;;;;;5.50;2.58;;;;;;;12.70;96.38;100373.03;5128503;28;20043;-62
2023/03/30 03:22:07;;;;;;;9.10;2.70;;;;;;;12.69;96.36;100374.13;5121979;28;20495;-64
2023/03/30 03:24:38;;;;;;;8.23;2.88;;;;;;;12.68;96.70;100379.91;5100549;28;20050;-65
2023/03/30 03:27:25;;;;;;;8.75;3.05;;;;;;;12.66;96.49;100388.38;5100279;28;20490;-64
2023/03/30 03:30:06;;;;;;;7.85;3.00;;;;;;;12.65;96.74;100392.22;5103337;28;20118;-66
2023/03/30 03:32:41;;;;;;;6.13;2.83;;;;;;;12.65;97.26;100383.19;5096934;28;20059;-65
2023/03/30 03:35:09;;;;;;;6.05;2.38;;;;;;;12.64;97.37;100379.66;5106576;28;20483;-65
2023/03/30 03:37:38;;;;;;;7.10;2.78;;;;;;;12.62;97.34;100376.41;5099880;28;20055;-64
2023/03/30 03:40:07;;;;;;;6.25;2.80;;;;;;;12.63;97.51;100371.75;5115311;27;20077;-65
2023/03/30 03:42:35;;;;;;;3.85;2.25;;;;;;;12.61;97.42;100366.59;5099649;28;20051;-65
2023/03/30 03:45:09;;;;;;;6.47;2.55;;;;;;;12.61;97.49;100352.09;5116223;28;20067;-64
2023/03/30 03:47:50;;;;;;;7.72;2.60;;;;;;;12.60;97.25;100343.06;5116241;28;20069;-64
2023/03/30 03:50:23;;;;;;;7.30;2.80;;;;;;;12.60;97.63;100342.25;5096784;28;20089;-64
2023/03/30 03:52:52;;;;;;;7.30;2.95;;;;;;;12.61;96.53;100339.25;5079110;28;20101;-66
2023/03/30 03:55:20;;;;;;;6.20;2.95;;;;;;;12.63;96.55;100344.41;5079311;28;20052;-65
2023/03/30 03:57:47;;;;;;;6.43;2.42;;;;;;;12.64;96.56;100335.94;5079162;28;20056;-64
2023/03/30 04:00:16;;;;;;;8.60;2.80;;;;;;;12.65;96.10;100343.03;5098829;27;20487;-64
2023/03/30 04:02:47;;;;;;;7.15;3.10;;;;;;;12.66;96.40;100350.13;5113480;28;20494;-67
2023/03/30 04:05:15;;;;;;;9.88;2.53;;;;;;;12.65;96.30;100343.03;5115620;28;20050;-66
2023/03/30 04:07:45;;;;;;;8.35;2.85;;;;;;;12.64;96.12;100333.19;5113801;28;20471;-65
2023/03/30 04:10:14;;;;;;;7.55;2.58;;;;;;;12.63;96.91;100328.00;5115732;28;20092;-64
2023/03/30 04:13:05;;;;;;;5.72;3.05;;;;;;;12.62;96.95;100337.31;5053843;28;20512;-65
2023/03/30 04:15:55;;;;;;;9.23;2.63;;;;;;;12.63;97.20;100331.56;5096027;28;20044;-65
2023/03/30 04:18:41;;;;;;;8.77;3.40;;;;;;;12.69;97.24;100341.31;5096060;28;20055;-65
2023/03/30 04:21:35;;;;;;;6.25;2.90;;;;;;;12.74;96.84;100335.78;5065807;28;20051;-65
2023/03/30 04:24:23;;;;;;;10.32;2.88;;;;;;;12.77;98.22;100346.16;5099229;28;20083;-64
2023/03/30 04:26:53;;;;;;;10.80;2.97;;;;;;;12.77;98.34;100339.84;5097330;28;20067;-66
2023/03/30 04:29:39;;;;;;;8.57;2.97;;;;;;;12.75;100.00;100342.09;5096532;28;20059;-67
2023/03/30 04:32:40;;;;;;;9.27;3.00;;;;;;;12.70;100.00;100329.28;5033710;28;20453;-62
2023/03/30 04:35:30;;;;;;;8.40;3.00;;;;;;;12.64;100.00;100324.19;5064748;28;20058;-65
2023/03/30 04:38:30;;;;;;;10.32;3.08;;;;;;;12.59;100.00;100333.25;5082792;28;20056;-65
2023/03/30 04:41:14;;;;;;;9.18;2.88;;;;;;;12.53;100.00;100323.50;5063485;28;20058;-65
2023/03/30 04:43:56;;;;;;;10.43;3.30;;;;;;;12.49;100.00;100326.00;5111104;27;20044;-64
2023/03/30 04:46:44;;;;;;;6.07;2.75;;;;;;;12.45;100.00;100322.22;5115958;28;20056;-64
2023/03/30 04:49:35;;;;;;;9.15;3.10;;;;;;;12.44;100.00;100330.72;5116337;28;20043;-65
2023/03/30 04:52:21;;;;;;;8.82;3.13;;;;;;;12.42;100.00;100322.00;5115258;28;20058;-64
2023/03/30 04:55:08;;;;;;;7.75;2.90;;;;;;;12.42;100.00;100316.53;5116329;27;20579;-64
2023/03/30 04:58:03;;;;;;;7.75;2.95;;;;;;;12.41;100.00;100317.63;5091787;28;20051;-63
2023/03/30 05:00:55;;;;;;;11.45;3.13;;;;;;;12.41;100.00;100325.84;5114790;28;20062;-64
2023/03/30 05:03:39;;;;;;;10.60;3.50;;;;;;;12.40;100.00;100329.69;5114570;27;20054;-63
2023/03/30 05:06:33;;;;;;;8.27;3.08;;;;;;;12.40;100.00;100324.22;5087040;28;20117;-66
2023/03/30 05:09:24;;;;;;;9.52;2.90;;;;;;;12.36;100.00;100343.94;5098105;28;20044;-63
2023/03/30 05:12:24;;;;;;;8.27;3.03;;;;;;;12.35;100.00;100361.41;5063263;28;20051;-66
2023/03/30 05:15:06;;;;;;;9.00;3.25;;;;;;;12.35;100.00;100366.06;5072774;28;20064;-66
2023/03/30 05:17:46;;;;;;;10.77;3.40;;;;;;;12.31;100.00;100365.84;5094805;28;20051;-65
2023/03/30 05:20:23;;;;;;;10.85;3.45;;;;;;;12.26;100.00;100376.00;5076812;28;20055;-63
2023/03/30 05:23:23;;;;;;;11.18;3.40;;;;;;;12.19;100.00;100373.63;5102618;28;20048;-64
2023/03/30 05:25:51;;;;;;;9.10;2.90;;;;;;;12.19;100.00;100368.16;5106779;27;20048;-65
2023/03/30 05:28:46;;;;;;;6.88;3.00;;;;;;;12.17;100.00;100375.00;5063604;28;20048;-63
2023/03/30 05:31:31;;;;;;;10.35;3.28;;;;;;;12.15;100.00;100364.41;5093790;28;20101;-63
2023/03/30 05:34:17;;;;;;;9.88;3.03;;;;;;;12.14;100.00;100374.47;5105771;28;20123;-63
2023/03/30 05:36:45;;;;;;;11.32;3.08;;;;;;;12.13;100.00;100372.06;5094412;28;20054;-65
2023/03/30 05:39:28;;;;;;;9.18;3.03;;;;;;;12.13;100.00;100377.53;5082060;28;20048;-65
2023/03/30 05:42:10;;;;;;;10.95;3.17;;;;;;;12.12;100.00;100384.91;5076959;28;20127;-66
2023/03/30 05:44:57;;;;;;;9.00;3.00;;;;;;;12.11;100.00;100374.25;5096876;28;20074;-64
2023/03/30 05:47:43;;;;;;;11.65;3.17;;;;;;;12.08;100.00;100372.91;5114433;27;20144;-63
2023/03/30 05:50:41;;;;;;;6.22;2.40;;;;;;;12.12;100.00;100368.53;4358164;28;10000172;-63
2023/03/30 05:53:18;;;;;;;10.70;3.40;;;;;;;12.08;100.00;100367.47;5078575;28;20051;-66
2023/03/30 05:56:06;;;;;;;11.00;3.72;;;;;;;12.08;100.00;100369.38;5089136;27;20172;-66
2023/03/30 05:58:51;;;;;;;7.82;2.80;;;;;;;12.06;100.00;100379.78;5102919;28;20074;-65
2023/03/30 06:01:38;;;;;;;6.60;2.60;;;;;;;12.09;100.00;100368.28;5110676;28;20468;-64
2023/03/30 06:04:07;;;;;;;9.02;3.40;;;;;;;12.08;100.00;100372.13;5092997;28;20118;-65
2023/03/30 06:06:36;;;;;;;10.98;3.20;;;;;;;12.11;100.00;100375.06;5090147;28;20044;-66
2023/03/30 06:09:04;;;;;;;10.88;3.30;;;;;;;12.12;100.00;100370.41;5108970;28;20139;-65
2023/03/30 06:11:34;;;;;;;9.55;2.85;;;;;;;12.10;100.00;100376.19;5089674;28;20044;-64
2023/03/30 06:14:27;;;;;;;11.38;3.60;;;;;;;12.07;100.00;100375.94;5085285;28;20056;-65
2023/03/30 06:17:15;;;;;;;8.80;3.30;;;;;;;12.05;100.00;100389.91;5089048;27;20056;-66
2023/03/30 06:19:43;;;;;;;10.35;3.22;;;;;;;12.07;100.00;100384.13;5130563;27;20047;-65
2023/03/30 06:22:11;;;;;;;10.35;3.10;;;;;;;12.03;100.00;100389.38;5129815;27;20135;-65
2023/03/30 06:25:00;;;;;;;10.55;3.33;;;;;;;12.01;100.00;100388.84;5129720;27;20511;-66
2023/03/30 06:27:31;;;;;;;9.43;3.10;;;;;;;12.02;100.00;100387.72;5113287;27;20482;-66
2023/03/30 06:29:59;;;;;;;11.82;3.47;;;;;;;12.06;100.00;100387.97;5125675;27;20051;-64
2023/03/30 06:32:27;;;;;;;9.98;3.10;;;;;;;12.04;100.00;100401.09;5109698;28;20051;-66
2023/03/30 06:35:17;;;;;;;12.73;3.60;;;;;;;12.10;100.00;100391.75;5109815;28;20152;-66
2023/03/30 06:37:45;;;;;;;8.82;3.00;;;;;;;12.08;100.00;100405.69;5088720;28;20048;-65
2023/03/30 06:40:14;;;;;;;10.23;3.80;;;;;;;12.11;100.00;100417.94;5108262;28;20126;-65
2023/03/30 06:42:46;;;;;;;11.73;3.22;;;;;;;12.09;100.00;100411.97;5092070;28;20537;-64
2023/03/30 06:45:26;;;;;;;11.30;3.60;;;;;;;12.07;100.00;100408.69;5094598;28;20051;-64
2023/03/30 06:47:54;;;;;;;11.95;3.67;;;;;;;12.05;100.00;100414.47;5110894;28;20058;-65
2023/03/30 06:50:23;;;;;;;11.63;3.55;;;;;;;12.05;100.00;100416.38;5061899;28;20476;-64
2023/03/30 06:53:15;;;;;;;10.43;3.17;;;;;;;12.12;100.00;100417.69;5077556;28;20052;-62
2023/03/30 06:55:51;;;;;;;10.35;3.10;;;;;;;12.05;100.00;100419.09;5076952;28;20056;-63
2023/03/30 06:58:21;;;;;;;14.07;4.28;;;;;;;12.02;100.00;100417.75;5076935;28;20446;-64
2023/03/30 07:00:49;;;;;;;12.85;3.60;;;;;;;12.04;100.00;100414.75;5092981;28;20055;-64
2023/03/30 07:03:52;;;;;;;11.30;3.28;;;;;;;12.06;100.00;100412.53;5093954;28;20040;-64
2023/03/30 07:06:26;;;;;;;12.50;3.60;;;;;;;12.05;100.00;100413.63;5125283;28;20076;-64
2023/03/30 07:08:53;;;;;;;15.48;3.92;;;;;;;12.05;100.00;100416.38;5127889;28;20058;-62
2023/03/30 07:11:25;;;;;;;13.82;3.60;;;;;;;12.07;100.00;100422.34;5115330;28;20070;-63
2023/03/30 07:13:57;;;;;;;11.60;3.38;;;;;;;12.10;100.00;100430.81;5120088;28;20047;-63
2023/03/30 07:16:25;;;;;;;12.93;3.92;;;;;;;12.06;100.00;100431.66;5090293;28;20048;-60
2023/03/30 07:18:53;;;;;;;15.20;4.03;;;;;;;12.04;100.00;100431.13;5119891;28;20053;-62
2023/03/30 07:21:21;;;;;;;16.35;4.35;;;;;;;12.05;100.00;100435.47;5121205;28;20052;-62
2023/03/30 07:23:49;;;;;;;19.65;5.57;;;;;;;12.08;100.00;100438.47;5113476;28;20126;-65
2023/03/30 07:26:28;;;;;;;15.10;4.05;;;;;;;12.12;100.00;100439.53;5113327;28;20055;-62
2023/03/30 07:29:05;;;;;;;15.27;4.20;;;;;;;12.13;100.00;100426.69;5113158;28;20495;-62
2023/03/30 07:31:34;;;;;;;13.50;4.22;;;;;;;12.13;100.00;100437.59;5095616;28;20036;-62
2023/03/30 07:34:03;;;;;;;15.70;4.20;;;;;;;12.15;100.00;100435.41;5113903;28;20126;-65
2023/03/30 07:36:36;;;;;;;12.98;3.97;;;;;;;12.14;100.00;100444.69;5093712;28;20051;-63
2023/03/30 07:39:07;;;;;;;14.75;4.07;;;;;;;12.15;100.00;100444.41;5092510;28;20055;-63
2023/03/30 07:41:37;;;;;;;18.30;4.13;;;;;;;12.21;100.00;100458.00;5080484;28;20040;-65
2023/03/30 07:44:04;;;;;;;15.55;4.32;;;;;;;12.27;100.00;100446.75;5095297;28;20050;-62
2023/03/30 07:46:32;;;;;;;17.65;4.13;;;;;;;12.28;100.00;100448.38;5112243;28;20043;-65
2023/03/30 07:49:01;;;;;;;14.90;3.80;;;;;;;12.29;100.00;100450.00;5112573;28;20069;-63
2023/03/30 07:51:28;;;;;;;13.63;4.03;;;;;;;12.32;100.00;100454.88;5112347;28;20552;-66
2023/03/30 07:54:03;;;;;;;15.90;4.10;;;;;;;12.36;100.00;100455.94;5112718;28;20123;-62
2023/03/30 07:56:51;;;;;;;16.17;4.13;;;;;;;12.35;100.00;100464.44;5104058;27;20039;-65
2023/03/30 07:59:20;;;;;;;15.30;3.97;;;;;;;12.40;100.00;100466.28;5093043;28;20056;-63
2023/03/30 08:01:50;;;;;;;18.67;4.30;;;;;;;12.36;100.00;100464.16;5100308;27;20044;-64
2023/03/30 08:04:45;;;;;;;;;;;;;;;12.37;100.00;100467.69;5113126;28;20052;-62
2023/03/30 08:07:16;;;;;;;14.65;4.30;;;;;;;12.34;100.00;100474.53;5093971;27;20399;-64
2023/03/30 08:09:45;;;;;;;14.52;4.30;;;;;;;12.38;100.00;100469.31;5096148;28;20044;-62
2023/03/30 08:12:13;;;;;;;18.15;4.60;;;;;;;12.37;100.00;100470.41;5067734;28;20043;-63
2023/03/30 08:14:41;;;;;;;17.27;4.75;;;;;;;12.40;100.00;100477.22;5116021;28;20061;-65
2023/03/30 08:17:09;;;;;;;20.17;4.68;;;;;;;12.41;100.00;100474.22;5116973;28;20039;-63
2023/03/30 08:19:36;;;;;;;20.88;4.70;;;;;;;12.42;100.00;100485.94;5117279;28;20118;-65
2023/03/30 08:22:04;;;;;;;19.00;5.07;;;;;;;12.38;100.00;100482.97;5110931;27;20418;-62
2023/03/30 08:24:32;;;;;;;21.38;5.45;;;;;;;12.36;100.00;100482.44;5112418;28;20043;-63
2023/03/30 08:27:00;;;;;;;21.88;5.28;;;;;;;12.39;100.00;100491.97;5045329;28;20059;-63
2023/03/30 08:29:30;;;;;;;17.83;4.20;;;;;;;12.38;100.00;100490.34;5096497;28;20043;-63
2023/03/30 08:31:58;;;;;;;18.30;4.47;;;;;;;12.38;100.00;100491.16;5096352;28;20066;-64
2023/03/30 08:34:26;;;;;;;18.50;4.40;;;;;;;12.41;100.00;100501.53;5115765;28;20047;-63
2023/03/30 08:36:54;;;;;;;17.30;4.32;;;;;;;12.45;100.00;100483.44;5116691;28;20043;-62
2023/03/30 08:39:22;;;;;;;17.63;4.57;;;;;;;12.50;100.00;100493.50;5115623;28;20157;-63
2023/03/30 08:42:11;;;;;;;19.88;4.75;;;;;;;12.51;100.00;100489.69;5116114;28;20039;-64
2023/03/30 08:44:43;;;;;;;20.00;5.10;;;;;;;12.51;100.00;100493.22;5082058;28;20127;-62
2023/03/30 08:47:16;;;;;;;18.77;5.82;;;;;;;12.58;100.00;100498.34;5098418;28;20179;-63
2023/03/30 08:49:57;;;;;;;21.58;5.70;;;;;;;12.57;100.00;100492.06;5116731;28;20055;-64
2023/03/30 08:52:25;;;;;;;21.58;5.40;;;;;;;12.58;100.00;100499.16;5098155;28;20066;-63
2023/03/30 08:54:53;;;;;;;24.50;4.82;;;;;;;12.58;100.00;100490.16;5098779;28;20052;-64
2023/03/30 08:58:09;;;;;;;18.10;4.45;;;;;;;12.62;100.00;100502.13;5115352;28;20043;-63
2023/03/30 09:00:57;;;;;;;19.85;5.25;;;;;;;12.68;100.00;100497.44;5012614;28;20054;-63
2023/03/30 09:03:38;;;;;;;20.27;4.43;;;;;;;12.73;100.00;100500.09;5013533;28;20078;-62
2023/03/30 09:06:25;;;;;;;17.85;4.68;;;;;;;12.77;100.00;100487.47;5066560;28;20090;-63
2023/03/30 09:08:53;;;;;;;18.45;4.57;;;;;;;12.79;100.00;100502.50;5093487;28;20050;-62
2023/03/30 09:11:30;;;;;;;21.10;4.60;;;;;;;12.83;100.00;100496.44;5095636;28;20136;-63
2023/03/30 09:14:02;;;;;;;17.13;4.80;;;;;;;12.85;100.00;100495.03;5094638;28;20044;-63
2023/03/30 09:17:12;;;;;;;16.90;4.22;;;;;;;12.84;100.00;100498.06;5094835;28;20044;-64
2023/03/30 09:19:51;;;;;;;19.85;4.95;;;;;;;12.86;99.00;100501.31;5051301;28;20047;-63
2023/03/30 09:22:20;;;;;;;21.63;5.05;;;;;;;12.87;99.39;100506.50;5095073;28;20148;-63
2023/03/30 09:24:50;;;;;;;18.40;4.53;;;;;;;12.85;99.04;100516.13;5077678;28;20719;-62
2023/03/30 09:27:24;;;;;;;17.15;4.30;;;;;;;12.84;98.84;100523.47;5095538;28;20055;-66
2023/03/30 09:29:54;;;;;;;18.42;4.97;;;;;;;12.84;98.87;100515.28;5094254;28;20119;-63
2023/03/30 09:32:36;;;;;;;21.23;5.18;;;;;;;12.83;96.86;100535.53;5113424;28;20054;-63
2023/03/30 09:35:06;;;;;;;23.00;5.55;;;;;;;12.83;95.78;100541.00;5098015;28;20534;-62
2023/03/30 09:37:35;;;;;;;18.05;4.25;;;;;;;12.83;95.66;100535.53;5110759;28;20079;-65
2023/03/30 09:40:33;;;;;;;23.13;4.90;;;;;;;12.88;94.93;100540.94;5093706;28;20565;-62
2023/03/30 09:43:18;;;;;;;21.58;4.97;;;;;;;12.87;95.31;100541.22;5094973;28;20040;-64
2023/03/30 09:45:46;;;;;;;22.30;4.63;;;;;;;12.88;94.83;100543.66;5096247;28;20050;-64
2023/03/30 09:48:15;;;;;;;21.42;5.07;;;;;;;12.91;95.01;100542.28;5099404;28;20052;-65
2023/03/30 09:50:45;;;;;;;19.83;5.13;;;;;;;12.93;93.37;100551.81;5083013;28;20113;-63
2023/03/30 09:53:33;;;;;;;22.42;5.10;;;;;;;12.93;91.16;100548.28;5096411;28;20071;-65
2023/03/30 09:56:48;;;;;;;22.67;5.25;;;;;;;12.93;91.72;100551.00;5095451;28;20082;-64
2023/03/30 09:59:32;;;;;;;19.92;5.85;;;;;;;12.95;92.06;100543.34;5099395;28;20056;-65
2023/03/30 10:02:16;;;;;;;26.90;5.63;;;;;;;12.98;90.60;100553.69;5098017;28;20153;-65
2023/03/30 10:05:05;;;;;;;24.80;5.82;;;;;;;13.06;90.95;100560.44;5095473;28;20046;-64
2023/03/30 10:07:36;;;;;;;24.58;5.78;;;;;;;13.14;89.21;100568.00;5112401;28;20074;-65
2023/03/30 10:10:35;;;;;;;19.80;5.10;;;;;;;13.17;88.50;100561.94;5079370;28;20043;-65
2023/03/30 10:13:18;;;;;;;24.02;5.57;;;;;;;13.17;87.28;100557.28;5114577;27;20047;-63
2023/03/30 10:15:50;;;;;;;19.90;4.93;;;;;;;13.17;89.12;100560.03;5114201;28;20047;-64
2023/03/30 10:18:18;;;;;;;18.17;5.20;;;;;;;13.18;89.92;100567.13;5114307;28;20049;-63
2023/03/30 10:20:53;;;;;;;21.50;4.95;;;;;;;13.15;89.85;100564.97;5113642;28;20544;-64
2023/03/30 10:23:23;;;;;;;23.90;5.60;;;;;;;13.18;90.69;100558.09;5109921;28;20052;-64
2023/03/30 10:25:51;;;;;;;22.48;5.40;;;;;;;13.18;90.86;100572.63;5114793;28;20127;-65
2023/03/30 10:28:25;;;;;;;21.33;5.22;;;;;;;13.16;90.19;100569.34;5108175;27;20499;-65
2023/03/30 10:31:16;;;;;;;25.45;5.57;;;;;;;13.18;90.70;100564.41;4391240;27;10000399;-65
2023/03/30 10:33:44;;;;;;;19.60;4.70;;;;;;;13.22;90.57;100553.69;5081992;28;20058;-66
2023/03/30 10:36:15;;;;;;;24.95;5.40;;;;;;;13.24;88.24;100578.81;5089316;28;20048;-65
2023/03/30 10:38:43;;;;;;;21.48;5.75;;;;;;;13.29;88.56;100565.13;5089274;28;20476;-65
2023/03/30 10:41:14;;;;;;;25.30;5.30;;;;;;;13.33;88.53;100566.16;5105265;27;20052;-66
2023/03/30 10:43:43;;;;;;;21.60;4.57;;;;;;;13.41;88.51;100575.66;5092751;28;20138;-66
2023/03/30 10:46:14;;;;;;;19.83;5.00;;;;;;;13.50;88.31;100557.47;5092824;28;20040;-66
2023/03/30 10:49:21;;;;;;;21.70;4.95;;;;;;;13.62;86.81;100568.00;5109514;28;20609;-66
2023/03/30 10:51:56;;;;;;;27.80;5.93;;;;;;;13.63;85.51;100572.34;5094272;28;20051;-65
2023/03/30 10:54:26;;;;;;;21.48;4.95;;;;;;;13.69;85.89;100564.88;5089849;28;20093;-65
2023/03/30 10:57:05;;;;;;;21.33;5.45;;;;;;;13.75;84.45;100569.16;5091081;28;20051;-66
2023/03/30 11:00:08;;;;;;;18.77;5.22;;;;;;;13.73;82.15;100568.66;5082003;28;20506;-65
2023/03/30 11:03:00;;;;;;;21.10;4.93;;;;;;;13.68;83.28;100560.50;5114485;28;20043;-64
2023/03/30 11:05:28;;;;;;;22.77;5.78;;;;;;;13.66;83.50;100574.47;5125098;28;20285;-64
2023/03/30 11:08:02;;;;;;;23.35;5.20;;;;;;;13.70;84.54;100582.94;5130751;28;20043;-64
2023/03/30 11:10:37;;;;;;;21.30;4.85;;;;;;;13.70;85.05;100570.06;5118326;28;20051;-66
2023/03/30 11:13:07;;;;;;;23.30;5.35;;;;;;;13.73;84.02;100563.97;5109548;28;20028;-63
2023/03/30 11:15:49;;;;;;;26.15;5.75;;;;;;;13.77;85.05;100570.50;5107038;28;20101;-62
2023/03/30 11:18:25;;;;;;;23.00;5.82;;;;;;;13.79;85.90;100564.75;5121846;28;20472;-61
2023/03/30 11:21:00;;;;;;;;;;;;;;;13.84;84.95;100560.00;5106746;28;20119;-63
2023/03/30 11:23:50;;;;;;;20.98;4.50;;;;;;;13.86;84.30;100573.41;5093020;28;20011;-65
2023/03/30 11:26:39;;;;;;;20.95;4.53;;;;;;;13.96;84.92;100577.91;5090245;28;20044;-65
2023/03/30 11:29:30;;;;;;;23.83;5.32;;;;;;;14.07;83.42;100580.22;5088696;28;20052;-66
2023/03/30 11:32:09;;;;;;;19.55;4.40;;;;;;;14.12;81.12;100557.41;5099513;28;20101;-66
2023/03/30 11:35:01;;;;;;;18.98;4.45;;;;;;;14.15;80.87;100565.00;5075648;28;20052;-66
2023/03/30 11:37:35;;;;;;;18.75;4.80;;;;;;;14.19;80.41;100566.06;5092559;28;20086;-67
2023/03/30 11:40:23;;;;;;;20.05;4.88;;;;;;;14.21;79.47;100552.03;5092497;28;20501;-65
2023/03/30 11:42:54;;;;;;;23.75;5.28;;;;;;;14.26;79.82;100560.16;5092026;28;20543;-65
2023/03/30 11:45:30;;;;;;;20.95;4.88;;;;;;;14.33;79.65;100546.91;5076936;28;20056;-65
2023/03/30 11:48:26;;;;;;;21.20;4.93;;;;;;;14.35;79.18;100561.13;5094083;28;20052;-65
2023/03/30 11:51:31;;;;;;;17.33;4.15;;;;;;;14.35;80.66;100563.84;5093245;28;20408;-66
2023/03/30 11:53:59;;;;;;;16.88;4.47;;;;;;;14.32;80.30;100564.47;5091682;28;20040;-66
2023/03/30 11:56:33;;;;;;;21.63;4.70;;;;;;;14.28;80.64;100585.34;5081607;28;20456;-66
2023/03/30 11:59:03;;;;;;;18.40;4.50;;;;;;;14.23;81.59;100585.44;5113838;27;20054;-67
2023/03/30 12:01:55;;;;;;;13.77;4.07;;;;;;;14.19;83.18;100577.00;5096369;28;20048;-66
2023/03/30 12:04:33;;;;;;;17.30;4.40;;;;;;;14.23;84.13;100578.03;5112640;28;20248;-65